Time;durP1;ratioP1;P1;durP2;ratioP2;P2;SDS_P1;SDS_P2;PMS_P1;PMS_P2;Temp;Humidity;BMP_temperature;BMP_pressure;BME280_temperature;BME280_humidity;BME280_pressure;Samples;Min_cycle;Max_cycle;Signal;HPM_P1;HPM_P2
2023/09/11 00:01:30;;;;;;;20.15;10.82;;;22.30;90.60;;;;;;6211854;23;20008;-74
2023/09/11 00:04:16;;;;;;;13.90;10.05;;;22.20;90.70;;;;;;6210306;23;20036;-74
2023/09/11 00:07:02;;;;;;;16.67;10.00;;;22.20;90.80;;;;;;6210689;23;20036;-73
2023/09/11 00:09:48;;;;;;;15.07;10.07;;;22.20;90.90;;;;;;6210748;23;20036;-73
2023/09/11 00:12:34;;;;;;;18.00;11.50;;;22.20;91.00;;;;;;6210746;23;20047;-74
2023/09/11 00:15:20;;;;;;;15.00;9.35;;;22.10;91.10;;;;;;6210799;23;20059;-73
2023/09/11 00:18:06;;;;;;;15.20;10.23;;;22.20;91.20;;;;;;6212658;23;20510;-74
2023/09/11 00:20:52;;;;;;;17.17;11.15;;;22.10;91.30;;;;;;6211028;23;20008;-73
2023/09/11 00:23:38;;;;;;;14.85;9.98;;;22.10;91.40;;;;;;6209602;23;20087;-74
2023/09/11 00:26:24;;;;;;;14.00;9.75;;;22.00;91.40;;;;;;6212111;23;20004;-74
2023/09/11 00:29:10;;;;;;;17.05;10.15;;;22.00;91.60;;;;;;6211240;23;20031;-73
2023/09/11 00:31:56;;;;;;;15.20;9.57;;;22.00;91.70;;;;;;6210152;23;20028;-73
2023/09/11 00:34:42;;;;;;;15.00;10.50;;;22.00;91.80;;;;;;6211720;23;20009;-73
2023/09/11 00:37:28;;;;;;;15.63;10.18;;;21.90;92.00;;;;;;6210400;23;20035;-73
2023/09/11 00:40:14;;;;;;;15.02;9.52;;;21.90;92.00;;;;;;6210026;23;20008;-73
2023/09/11 00:42:59;;;;;;;16.05;10.95;;;21.90;92.00;;;;;;6212049;23;20017;-73
2023/09/11 00:45:46;;;;;;;21.58;12.27;;;21.80;92.00;;;;;;6210301;23;20001;-73
2023/09/11 00:48:32;;;;;;;19.65;11.23;;;21.80;92.20;;;;;;6210811;23;20051;-73
2023/09/11 00:51:18;;;;;;;17.77;11.40;;;21.80;92.20;;;;;;6210660;23;20000;-73
2023/09/11 00:54:04;;;;;;;19.35;10.82;;;21.70;92.30;;;;;;6210868;23;20009;-73
2023/09/11 00:56:50;;;;;;;15.18;10.52;;;21.70;92.40;;;;;;6210304;23;20029;-74
2023/09/11 00:59:36;;;;;;;16.02;9.35;;;21.70;92.60;;;;;;6210425;23;20008;-73
2023/09/11 01:02:22;;;;;;;17.38;10.82;;;21.60;92.60;;;;;;6213721;23;20008;-74
2023/09/11 01:05:09;;;;;;;13.85;10.85;;;21.60;92.70;;;;;;6210046;23;20099;-74
2023/09/11 01:11:37;;;;;;;13.13;9.25;;;21.60;92.70;;;;;;6212212;23;20012;-74
2023/09/11 01:14:23;;;;;;;17.15;10.90;;;21.60;92.70;;;;;;6211197;23;20035;-74
2023/09/11 01:17:41;;;;;;;16.77;9.98;;;21.50;92.90;;;;;;6210084;23;20442;-74
2023/09/11 01:20:49;;;;;;;13.43;10.20;;;21.50;92.90;;;;;;6189326;23;20004;-72
2023/09/11 01:23:54;;;;;;;16.30;9.57;;;21.40;93.00;;;;;;6209737;23;20013;-72
2023/09/11 01:26:51;;;;;;;15.23;10.45;;;21.40;93.20;;;;;;6211768;23;20012;-72
2023/09/11 01:29:40;;;;;;;14.40;10.38;;;21.40;93.30;;;;;;6209378;23;20059;-72
2023/09/11 01:32:27;;;;;;;17.00;10.45;;;21.40;93.40;;;;;;6209893;23;20020;-72
2023/09/11 01:35:13;;;;;;;14.90;10.15;;;21.40;93.60;;;;;;6211543;23;20001;-72
2023/09/11 01:37:59;;;;;;;14.02;10.23;;;21.30;93.60;;;;;;6209056;23;20019;-72
2023/09/11 01:40:47;;;;;;;14.48;10.77;;;21.30;93.70;;;;;;6209358;23;20083;-73
2023/09/11 01:43:37;;;;;;;12.73;9.32;;;21.30;93.70;;;;;;6209696;23;20046;-73
2023/09/11 01:46:24;;;;;;;13.10;9.93;;;21.20;93.70;;;;;;6209912;23;20005;-73
2023/09/11 01:49:10;;;;;;;15.65;10.65;;;21.20;94.00;;;;;;6209782;23;20407;-72
2023/09/11 01:51:57;;;;;;;14.43;10.23;;;21.20;94.20;;;;;;6211073;23;20375;-76
2023/09/11 01:54:44;;;;;;;15.90;11.23;;;21.20;94.30;;;;;;6209849;23;20015;-74
2023/09/11 01:57:30;;;;;;;14.38;10.20;;;21.10;94.40;;;;;;6208615;23;20020;-74
2023/09/11 02:00:16;;;;;;;14.88;9.77;;;21.10;94.50;;;;;;6210239;23;20016;-73
2023/09/11 02:03:02;;;;;;;16.50;9.73;;;21.10;94.50;;;;;;6211623;23;20577;-73
2023/09/11 02:05:48;;;;;;;17.10;10.95;;;21.10;94.60;;;;;;6208244;23;20008;-73
2023/09/11 02:08:34;;;;;;;16.73;10.93;;;21.00;94.70;;;;;;6210184;23;20009;-73
2023/09/11 02:11:22;;;;;;;16.88;10.98;;;21.00;94.70;;;;;;6215943;23;20009;-71
2023/09/11 02:14:07;;;;;;;15.35;9.55;;;21.00;94.80;;;;;;6214008;23;20017;-71
2023/09/11 02:16:54;;;;;;;16.05;10.80;;;20.90;94.90;;;;;;6211081;23;20477;-72
2023/09/11 02:19:39;;;;;;;17.90;11.52;;;20.90;94.90;;;;;;6210239;23;20032;-71
2023/09/11 02:22:25;;;;;;;15.23;10.98;;;20.90;95.10;;;;;;6209190;23;20008;-72
2023/09/11 02:25:11;;;;;;;14.48;10.30;;;20.80;95.20;;;;;;6209091;23;20063;-73
2023/09/11 02:27:57;;;;;;;15.55;11.43;;;20.80;95.40;;;;;;6209597;23;20017;-72
2023/09/11 02:30:43;;;;;;;21.70;11.95;;;20.80;95.40;;;;;;6209263;23;20063;-71
2023/09/11 02:33:29;;;;;;;18.08;11.75;;;20.70;95.40;;;;;;6209350;23;20024;-71
2023/09/11 02:36:15;;;;;;;17.08;10.90;;;20.70;95.50;;;;;;6209279;23;20005;-71
2023/09/11 02:39:01;;;;;;;17.80;11.65;;;20.70;95.70;;;;;;6210021;23;20384;-73
2023/09/11 02:41:47;;;;;;;15.65;11.40;;;20.70;95.80;;;;;;6209212;23;20031;-72
2023/09/11 02:44:33;;;;;;;15.88;11.32;;;20.60;95.80;;;;;;6209597;23;20009;-72
2023/09/11 02:47:19;;;;;;;16.80;11.30;;;20.60;96.00;;;;;;6208548;23;20092;-72
2023/09/11 02:50:05;;;;;;;18.80;11.52;;;20.60;96.00;;;;;;6208862;23;20434;-72
2023/09/11 02:52:51;;;;;;;15.57;11.90;;;20.60;95.90;;;;;;6210672;23;20023;-72
2023/09/11 02:55:38;;;;;;;17.95;11.05;;;20.50;96.00;;;;;;6209217;23;20016;-69
2023/09/11 02:58:24;;;;;;;15.07;10.38;;;20.60;96.10;;;;;;6208934;23;20009;-69
2023/09/11 03:01:10;;;;;;;17.80;11.30;;;20.50;96.20;;;;;;6208663;23;20001;-69
2023/09/11 03:03:56;;;;;;;15.00;11.32;;;20.50;96.40;;;;;;6210056;23;20445;-68
2023/09/11 03:06:42;;;;;;;17.85;11.38;;;20.50;96.40;;;;;;6209599;23;20123;-69
2023/09/11 03:09:28;;;;;;;16.25;10.95;;;20.50;96.40;;;;;;6209358;23;20096;-68
2023/09/11 03:12:14;;;;;;;18.02;11.73;;;20.50;96.40;;;;;;6209396;23;20355;-69
2023/09/11 03:15:03;;;;;;;16.98;11.32;;;20.50;96.60;;;;;;6208796;23;20009;-68
2023/09/11 03:17:49;;;;;;;14.85;11.43;;;20.50;96.80;;;;;;6209436;23;20036;-69
2023/09/11 03:20:35;;;;;;;18.30;10.70;;;20.50;96.80;;;;;;6208797;23;20005;-68
2023/09/11 03:23:21;;;;;;;16.70;11.25;;;20.40;96.80;;;;;;6209005;23;20005;-68
2023/09/11 03:26:15;;;;;;;16.88;11.52;;;20.40;96.90;;;;;;6210527;23;20446;-70
2023/09/11 03:29:01;;;;;;;16.17;11.38;;;20.40;97.00;;;;;;6209518;23;20008;-70
2023/09/11 03:31:47;;;;;;;18.13;10.48;;;20.40;97.00;;;;;;6208835;23;20013;-69
2023/09/11 03:34:32;;;;;;;15.43;10.50;;;20.30;97.10;;;;;;6208727;23;20008;-69
2023/09/11 03:37:18;;;;;;;18.23;11.45;;;20.30;97.10;;;;;;6208447;23;20000;-69
2023/09/11 03:40:08;;;;;;;15.43;11.25;;;20.30;97.10;;;;;;6210712;23;20012;-68
2023/09/11 03:42:54;;;;;;;17.90;11.20;;;20.30;97.20;;;;;;6211148;23;20001;-70
2023/09/11 03:45:39;;;;;;;13.90;10.43;;;20.30;97.30;;;;;;6210286;23;20008;-70
2023/09/11 03:48:25;;;;;;;16.45;10.93;;;20.20;97.30;;;;;;6210575;23;20012;-67
2023/09/11 03:51:11;;;;;;;19.27;11.88;;;20.20;97.30;;;;;;6211351;23;20008;-67
2023/09/11 03:53:58;;;;;;;16.02;11.43;;;20.20;97.30;;;;;;6210899;23;20020;-67
2023/09/11 03:56:45;;;;;;;17.17;10.65;;;20.10;97.30;;;;;;6211919;23;20024;-67
2023/09/11 03:59:31;;;;;;;14.85;9.65;;;20.10;97.50;;;;;;6210563;23;20013;-73
2023/09/11 04:02:17;;;;;;;14.40;10.52;;;20.10;97.50;;;;;;6212975;23;20091;-67
2023/09/11 04:05:03;;;;;;;16.50;12.15;;;20.10;97.60;;;;;;6211740;23;20009;-72
2023/09/11 04:07:49;;;;;;;17.88;12.63;;;20.10;97.70;;;;;;6212364;23;20039;-70
2023/09/11 04:10:35;;;;;;;16.88;11.15;;;20.00;97.70;;;;;;6210286;23;20015;-70
2023/09/11 04:13:21;;;;;;;17.42;11.40;;;20.00;97.80;;;;;;6210793;23;20012;-70
2023/09/11 04:16:07;;;;;;;16.40;11.55;;;20.00;97.80;;;;;;6210322;23;20015;-70
2023/09/11 04:18:53;;;;;;;19.42;11.95;;;19.90;97.80;;;;;;6211434;23;20040;-70
2023/09/11 04:21:39;;;;;;;17.30;11.10;;;20.00;97.90;;;;;;6211337;23;20004;-70
2023/09/11 04:24:25;;;;;;;20.95;11.38;;;20.00;97.90;;;;;;6210615;23;20450;-69
2023/09/11 04:27:11;;;;;;;15.70;11.00;;;19.90;97.90;;;;;;6210491;23;20390;-69
2023/09/11 04:29:57;;;;;;;15.35;11.30;;;19.90;98.00;;;;;;6210418;23;20071;-69
2023/09/11 04:32:44;;;;;;;13.02;10.13;;;19.90;98.10;;;;;;6210545;23;20008;-70
2023/09/11 04:35:30;;;;;;;15.32;10.82;;;19.90;98.20;;;;;;6210799;23;20009;-68
2023/09/11 04:38:15;;;;;;;17.65;11.25;;;19.90;98.20;;;;;;6209409;23;20450;-68
2023/09/11 04:41:01;;;;;;;18.17;10.75;;;19.90;98.30;;;;;;6209612;23;20092;-68
2023/09/11 04:43:47;;;;;;;14.80;11.25;;;19.90;98.40;;;;;;6210140;23;20067;-69
2023/09/11 04:46:33;;;;;;;21.58;11.23;;;19.90;98.40;;;;;;6209137;23;20332;-69
2023/09/11 04:49:19;;;;;;;14.65;10.63;;;19.90;98.50;;;;;;6210911;23;20008;-69
2023/09/11 04:52:05;;;;;;;15.32;11.73;;;19.90;98.50;;;;;;6210601;23;20044;-69
2023/09/11 04:54:51;;;;;;;16.33;10.85;;;19.90;98.50;;;;;;6209404;23;20012;-69
2023/09/11 04:57:38;;;;;;;17.27;11.10;;;19.90;98.50;;;;;;6209678;23;20366;-69
2023/09/11 05:00:26;;;;;;;16.00;10.85;;;19.90;98.50;;;;;;6209759;23;20004;-69
2023/09/11 05:03:12;;;;;;;16.33;10.93;;;19.90;98.50;;;;;;6212027;23;20046;-69
2023/09/11 05:05:57;;;;;;;15.30;10.18;;;19.90;98.50;;;;;;6209678;23;20012;-69
2023/09/11 05:08:43;;;;;;;17.88;10.75;;;19.90;98.50;;;;;;6210458;23;20012;-69
2023/09/11 05:11:29;;;;;;;15.00;10.73;;;19.90;98.60;;;;;;6209297;23;20032;-69
2023/09/11 05:14:15;;;;;;;21.15;11.82;;;19.90;98.50;;;;;;6211153;23;20342;-69
2023/09/11 05:17:01;;;;;;;18.35;11.32;;;19.90;98.50;;;;;;6209386;23;20342;-69
2023/09/11 05:19:47;;;;;;;17.38;10.02;;;19.90;98.50;;;;;;6211046;23;20016;-69
2023/09/11 05:22:33;;;;;;;15.02;10.98;;;20.00;98.50;;;;;;6211453;23;20008;-69
2023/09/11 05:25:23;;;;;;;14.75;10.73;;;19.90;98.50;;;;;;6209788;23;20016;-69
2023/09/11 05:28:09;;;;;;;19.17;10.63;;;20.00;98.60;;;;;;6210014;23;20402;-69
2023/09/11 05:30:54;;;;;;;16.40;10.50;;;20.00;98.70;;;;;;6210953;23;20004;-69
2023/09/11 05:33:40;;;;;;;15.60;10.68;;;20.00;98.80;;;;;;6211554;23;20362;-69
2023/09/11 05:36:26;;;;;;;16.48;10.68;;;20.00;98.80;;;;;;6214986;23;20016;-69
2023/09/11 05:39:12;;;;;;;17.95;11.18;;;20.10;98.80;;;;;;6212933;23;20461;-68
2023/09/11 05:41:58;;;;;;;18.33;11.77;;;20.10;98.90;;;;;;6211451;23;20004;-68
2023/09/11 05:44:44;;;;;;;15.80;11.40;;;20.20;98.90;;;;;;6210015;23;20004;-69
2023/09/11 05:47:30;;;;;;;16.77;12.30;;;20.20;98.80;;;;;;6211505;23;20008;-69
2023/09/11 05:50:17;;;;;;;16.50;11.02;;;20.30;98.80;;;;;;6209706;23;20015;-69
2023/09/11 05:53:06;;;;;;;18.08;12.40;;;20.30;98.70;;;;;;6209388;23;20020;-70
2023/09/11 05:55:52;;;;;;;19.02;12.57;;;20.40;98.70;;;;;;6209857;23;20442;-69
2023/09/11 05:58:38;;;;;;;18.67;12.13;;;20.50;98.70;;;;;;6209809;23;20039;-69
2023/09/11 06:01:24;;;;;;;20.42;12.65;;;20.50;98.60;;;;;;6209486;23;20004;-69
2023/09/11 06:04:10;;;;;;;14.55;10.02;;;20.60;98.60;;;;;;6210954;23;20020;-69
2023/09/11 06:06:56;;;;;;;15.95;11.73;;;20.60;98.60;;;;;;6209701;23;20385;-69
2023/09/11 06:09:42;;;;;;;19.60;11.45;;;20.70;98.60;;;;;;6209934;23;20095;-68
2023/09/11 06:12:30;;;;;;;17.85;12.13;;;20.80;98.50;;;;;;6210035;23;20020;-68
2023/09/11 06:15:16;;;;;;;15.85;11.65;;;20.80;98.50;;;;;;6210652;23;20082;-69
2023/09/11 06:18:03;;;;;;;15.70;9.85;;;20.90;98.60;;;;;;6209546;23;20378;-69
2023/09/11 06:20:49;;;;;;;18.02;11.38;;;21.00;98.40;;;;;;6210365;23;20011;-69
2023/09/11 06:23:35;;;;;;;15.48;10.32;;;21.00;98.40;;;;;;6209847;23;20000;-69
2023/09/11 06:26:21;;;;;;;15.73;11.35;;;21.00;98.30;;;;;;6210027;23;20019;-69
2023/09/11 06:29:07;;;;;;;17.48;11.02;;;21.10;98.20;;;;;;6210530;23;20009;-69
2023/09/11 11:01:58;;;;;;;7.20;4.95;;;28.40;76.90;;;;;;6268557;22;20284;-66
2023/09/11 11:04:45;;;;;;;9.70;4.95;;;28.50;75.50;;;;;;6270666;22;20430;-66
2023/09/11 11:07:31;;;;;;;9.30;4.65;;;28.50;75.20;;;;;;6273337;22;20440;-66
2023/09/11 11:10:19;;;;;;;7.45;4.38;;;28.60;74.60;;;;;;6273392;22;20012;-66
2023/09/11 11:13:07;;;;;;;12.65;5.15;;;28.60;74.30;;;;;;6273888;22;20360;-66
2023/09/11 11:16:23;;;;;;;11.98;5.20;;;28.70;74.60;;;;;;6273434;22;20074;-66
2023/09/11 11:19:27;;;;;;;9.25;4.95;;;28.80;75.10;;;;;;6246514;22;20083;-66
2023/09/11 11:22:33;;;;;;;9.13;4.15;;;28.90;73.80;;;;;;6273779;22;20403;-67
2023/09/11 11:25:20;;;;;;;9.05;4.85;;;28.90;73.70;;;;;;6274795;22;20348;-67
2023/09/11 11:28:10;;;;;;;10.75;5.03;;;29.00;73.80;;;;;;6271573;22;20020;-67
2023/09/11 11:30:56;;;;;;;8.93;4.53;;;29.00;73.00;;;;;;6273614;22;20436;-67
2023/09/11 11:33:57;;;;;;;9.10;4.85;;;29.00;73.30;;;;;;6271682;22;20023;-66
2023/09/11 11:36:45;;;;;;;7.75;4.22;;;29.10;73.10;;;;;;6274271;22;20004;-67
2023/09/11 11:39:37;;;;;;;9.00;4.85;;;29.10;72.70;;;;;;6273692;22;20433;-67
2023/09/11 11:42:22;;;;;;;8.40;4.55;;;29.20;72.00;;;;;;6274232;22;20007;-67
2023/09/11 11:45:09;;;;;;;7.30;4.32;;;29.20;71.70;;;;;;6273269;22;20008;-66
2023/09/11 11:47:55;;;;;;;8.50;4.80;;;29.20;72.00;;;;;;6272206;22;20019;-66
2023/09/11 11:50:45;;;;;;;7.82;5.13;;;29.30;71.70;;;;;;6271714;22;20011;-66
2023/09/11 11:53:33;;;;;;;8.55;5.32;;;29.30;71.60;;;;;;6274811;22;20077;-67
2023/09/11 11:56:19;;;;;;;5.65;3.85;;;29.40;70.30;;;;;;6270683;22;20010;-66
2023/09/11 11:59:05;;;;;;;7.25;3.60;;;29.40;70.10;;;;;;6271151;22;20016;-65
2023/09/11 12:01:51;;;;;;;6.82;4.55;;;29.30;69.10;;;;;;6265207;22;20075;-66
2023/09/11 12:04:42;;;;;;;6.97;3.95;;;29.30;69.20;;;;;;6220984;23;20019;-65
2023/09/11 12:07:28;;;;;;;8.23;3.88;;;29.40;69.20;;;;;;6240565;23;20019;-66
2023/09/11 12:10:14;;;;;;;5.43;4.18;;;29.40;68.70;;;;;;6242748;22;20094;-66
2023/09/11 12:13:00;;;;;;;7.10;3.95;;;29.40;68.70;;;;;;6242893;23;20475;-66
2023/09/11 12:15:57;;;;;;;8.05;4.10;;;29.50;69.40;;;;;;6243404;22;20042;-66
2023/09/11 12:18:43;;;;;;;8.20;4.35;;;29.50;68.60;;;;;;6240250;23;20012;-67
2023/09/11 12:21:31;;;;;;;4.97;4.32;;;29.50;68.10;;;;;;6243617;22;20607;-66
2023/09/11 12:24:17;;;;;;;5.53;4.07;;;29.60;67.10;;;;;;6243803;22;20008;-66
2023/09/11 12:27:04;;;;;;;10.55;4.40;;;29.60;67.30;;;;;;6220804;23;20016;-66
2023/09/11 12:29:53;;;;;;;6.47;4.03;;;29.60;67.00;;;;;;6239593;23;20012;-66
2023/09/11 12:32:39;;;;;;;5.68;4.30;;;29.60;67.40;;;;;;6237516;23;20047;-66
2023/09/11 12:35:32;;;;;;;5.93;4.00;;;29.60;67.20;;;;;;6243062;22;20008;-66
2023/09/11 12:38:19;;;;;;;6.85;3.85;;;29.70;66.00;;;;;;6242182;22;20016;-67
2023/09/11 12:41:05;;;;;;;7.40;4.45;;;29.70;65.90;;;;;;6243570;22;20501;-66
2023/09/11 12:43:51;;;;;;;9.45;4.32;;;29.80;65.70;;;;;;6242406;22;20074;-66
2023/09/11 12:46:37;;;;;;;6.47;4.03;;;29.80;65.60;;;;;;6242893;22;20437;-66
2023/09/11 12:49:23;;;;;;;7.78;4.18;;;29.90;66.00;;;;;;6242967;22;20389;-65
2023/09/11 12:52:11;;;;;;;4.95;3.65;;;29.90;65.90;;;;;;6240476;23;20129;-65
2023/09/11 12:57:29;;;;;;;8.32;4.53;;;30.10;66.30;;;;;;6253825;22;20027;-67
2023/09/11 13:00:16;;;;;;;10.43;4.80;;;30.10;66.10;;;;;;6271413;22;20008;-67
2023/09/11 13:03:03;;;;;;;9.27;4.78;;;30.20;66.10;;;;;;6268582;22;20015;-67
2023/09/11 13:05:49;;;;;;;7.13;4.68;;;30.30;66.30;;;;;;6272324;22;20019;-69
2023/09/11 13:08:36;;;;;;;7.10;4.28;;;30.30;66.30;;;;;;6270933;22;20012;-68
2023/09/11 13:11:22;;;;;;;14.55;4.60;;;30.40;65.90;;;;;;6270807;22;20141;-68
2023/09/11 13:14:08;;;;;;;5.82;4.13;;;30.40;64.70;;;;;;6271083;22;20106;-67
2023/09/11 13:16:54;;;;;;;8.00;3.60;;;30.50;63.70;;;;;;6270242;22;20012;-67
2023/09/11 13:19:40;;;;;;;14.40;4.63;;;30.60;63.80;;;;;;6246142;22;20419;-68
2023/09/11 13:22:26;;;;;;;7.22;3.65;;;30.60;63.30;;;;;;6269756;22;20447;-68
2023/09/11 13:25:12;;;;;;;9.05;4.45;;;30.60;62.90;;;;;;6271373;22;20091;-68
2023/09/11 13:27:58;;;;;;;6.15;4.63;;;30.70;63.20;;;;;;6273486;22;20016;-68
2023/09/11 13:30:44;;;;;;;8.30;4.57;;;30.70;63.30;;;;;;6271396;22;20061;-74
2023/09/11 13:33:30;;;;;;;7.40;3.65;;;30.80;63.20;;;;;;6270164;22;20023;-74
2023/09/11 13:36:16;;;;;;;7.93;3.60;;;30.90;62.90;;;;;;6269796;22;20008;-74
2023/09/11 13:39:03;;;;;;;6.95;3.92;;;30.90;62.30;;;;;;6269755;22;20456;-75
2023/09/11 13:41:49;;;;;;;9.27;4.22;;;31.00;62.30;;;;;;6269746;22;20019;-74
2023/09/11 13:44:35;;;;;;;8.55;4.40;;;31.00;62.10;;;;;;6270597;22;20258;-73
2023/09/11 13:47:22;;;;;;;8.38;4.47;;;31.10;62.20;;;;;;6271222;22;20011;-73
2023/09/11 13:50:09;;;;;;;7.70;4.25;;;31.10;62.10;;;;;;6271396;22;20353;-75
2023/09/11 13:52:55;;;;;;;6.07;4.30;;;31.20;61.50;;;;;;6269887;22;20030;-74
2023/09/11 13:55:41;;;;;;;7.50;4.25;;;31.20;61.70;;;;;;6257723;22;20449;-74
2023/09/11 13:58:27;;;;;;;5.43;4.03;;;31.30;61.70;;;;;;6240175;23;20489;-75
2023/09/11 14:01:13;;;;;;;13.20;4.05;;;31.30;61.50;;;;;;6241051;23;20066;-75
2023/09/11 14:03:59;;;;;;;7.95;4.20;;;31.30;60.30;;;;;;6242721;22;20015;-75
2023/09/11 14:06:45;;;;;;;8.45;4.70;;;31.40;60.30;;;;;;6241433;23;20015;-76
2023/09/11 14:09:31;;;;;;;6.18;4.10;;;31.40;60.60;;;;;;6239716;22;20019;-75
2023/09/11 14:12:17;;;;;;;5.97;3.80;;;31.50;60.80;;;;;;6240981;22;20011;-74
2023/09/11 14:15:03;;;;;;;6.40;4.25;;;31.50;60.70;;;;;;6241748;23;20008;-74
2023/09/11 14:17:49;;;;;;;5.97;3.47;;;31.60;59.70;;;;;;6241394;23;20014;-74
2023/09/11 14:20:35;;;;;;;5.65;3.67;;;31.60;59.20;;;;;;6240908;23;20019;-74
2023/09/11 14:23:20;;;;;;;4.90;3.70;;;31.70;59.70;;;;;;6240486;22;20086;-74
2023/09/11 14:26:06;;;;;;;7.50;4.10;;;31.70;59.70;;;;;;6242082;23;20027;-75
2023/09/11 14:28:52;;;;;;;6.40;4.30;;;31.80;59.60;;;;;;6242362;22;20012;-74
2023/09/11 14:31:38;;;;;;;6.40;4.35;;;31.80;59.70;;;;;;6240417;22;20023;-74
2023/09/11 14:34:24;;;;;;;6.85;4.30;;;31.90;60.00;;;;;;6241561;23;20024;-74
2023/09/11 14:37:11;;;;;;;5.57;4.18;;;31.90;58.80;;;;;;6241171;23;20065;-74
2023/09/11 14:39:57;;;;;;;13.20;4.63;;;31.90;58.80;;;;;;6239520;23;20016;-75
2023/09/11 14:42:43;;;;;;;6.00;3.85;;;31.90;58.30;;;;;;6241056;23;20008;-75
2023/09/11 14:45:29;;;;;;;7.35;4.78;;;31.90;58.80;;;;;;6241812;23;20015;-77
2023/09/11 14:48:15;;;;;;;6.47;4.13;;;31.90;58.50;;;;;;6241614;23;20012;-75
2023/09/11 14:51:00;;;;;;;5.22;4.35;;;32.00;58.50;;;;;;6241181;23;20046;-75
2023/09/11 14:53:50;;;;;;;7.65;4.05;;;32.00;58.60;;;;;;6240109;23;20845;-76
2023/09/11 14:56:36;;;;;;;5.53;3.90;;;32.10;58.60;;;;;;6238969;22;20344;-75
2023/09/11 14:59:22;;;;;;;11.40;4.10;;;32.10;58.70;;;;;;6241193;23;20012;-75
2023/09/11 15:02:08;;;;;;;13.32;4.10;;;32.10;57.40;;;;;;6240647;23;20360;-76
2023/09/11 15:04:54;;;;;;;9.02;3.78;;;32.10;57.30;;;;;;6241094;23;20012;-75
2023/09/11 15:07:40;;;;;;;14.52;4.90;;;32.10;57.50;;;;;;6240351;22;20076;-76
2023/09/11 15:10:26;;;;;;;9.85;3.95;;;32.10;57.60;;;;;;6241232;23;20495;-76
2023/09/11 15:13:12;;;;;;;10.25;4.20;;;32.10;57.30;;;;;;6240396;23;20066;-76
2023/09/11 15:15:58;;;;;;;7.18;4.20;;;32.20;57.60;;;;;;6240844;23;20510;-76
2023/09/11 15:18:44;;;;;;;7.65;4.30;;;32.20;57.10;;;;;;6240086;23;20143;-76
2023/09/11 15:21:30;;;;;;;11.68;4.32;;;32.30;57.50;;;;;;6241615;22;20020;-79
2023/09/11 15:24:17;;;;;;;5.40;3.90;;;32.20;56.70;;;;;;6241259;23;20107;-67
2023/09/11 15:27:03;;;;;;;7.57;4.82;;;32.20;57.20;;;;;;6238419;23;20085;-67
2023/09/11 15:29:49;;;;;;;14.68;4.93;;;32.20;57.60;;;;;;6239491;23;20059;-71
2023/09/11 15:32:35;;;;;;;9.80;4.60;;;32.10;57.70;;;;;;6240838;23;20016;-70
2023/09/11 15:35:22;;;;;;;12.50;4.68;;;32.20;57.50;;;;;;6242038;23;20063;-69
2023/09/11 15:38:08;;;;;;;8.18;4.28;;;32.20;56.90;;;;;;6240792;23;20028;-69
2023/09/11 15:41:02;;;;;;;7.82;4.20;;;32.20;56.60;;;;;;6240972;23;20131;-71
2023/09/11 15:43:48;;;;;;;8.45;4.38;;;32.10;56.60;;;;;;6239715;23;20008;-67
2023/09/11 15:46:34;;;;;;;7.43;3.97;;;32.10;56.90;;;;;;6241124;23;20449;-68
2023/09/11 15:49:20;;;;;;;8.68;4.22;;;32.10;56.70;;;;;;6243492;23;20103;-69
2023/09/11 15:52:06;;;;;;;21.50;9.15;;;32.00;56.40;;;;;;6242564;23;20094;-72
2023/09/11 15:54:52;;;;;;;7.38;3.95;;;31.90;56.70;;;;;;6242994;22;20008;-68
2023/09/11 15:57:38;;;;;;;185.27;68.10;;;31.90;56.70;;;;;;6241420;23;20023;-70
2023/09/11 16:00:24;;;;;;;139.93;50.05;;;31.90;57.10;;;;;;6240584;23;20078;-70
2023/09/11 16:03:10;;;;;;;20.65;9.77;;;31.80;57.30;;;;;;6240893;23;20455;-70
2023/09/11 16:05:56;;;;;;;10.93;6.50;;;31.70;57.00;;;;;;6242603;23;20027;-70
2023/09/11 16:08:43;;;;;;;16.85;7.05;;;31.70;57.20;;;;;;6242773;23;20008;-71
2023/09/11 16:11:29;;;;;;;9.05;4.50;;;31.50;57.50;;;;;;6239839;23;20026;-70
2023/09/11 16:14:15;;;;;;;55.60;17.92;;;31.40;57.20;;;;;;6244057;22;20334;-70
2023/09/11 16:17:02;;;;;;;37.35;15.98;;;31.30;57.40;;;;;;6241831;23;20338;-70
2023/09/11 16:19:48;;;;;;;17.80;7.78;;;31.30;57.50;;;;;;6241185;23;20074;-69
2023/09/11 16:22:34;;;;;;;18.25;7.55;;;31.20;57.30;;;;;;6242204;23;20008;-69
2023/09/11 16:25:20;;;;;;;20.05;10.32;;;31.20;57.40;;;;;;6242662;23;20016;-66
2023/09/11 16:28:06;;;;;;;8.55;4.80;;;31.10;57.40;;;;;;6241898;23;20348;-67
2023/09/11 16:30:53;;;;;;;11.32;4.88;;;31.10;57.10;;;;;;6241976;23;20009;-66
2023/09/11 16:33:38;;;;;;;41.03;17.88;;;31.00;57.30;;;;;;6235124;23;20341;-69
2023/09/11 16:36:24;;;;;;;26.60;12.00;;;30.90;57.40;;;;;;6237308;23;20004;-69
2023/09/11 16:39:10;;;;;;;18.00;8.68;;;30.80;57.30;;;;;;6241001;23;20011;-69
2023/09/11 16:41:57;;;;;;;21.27;8.52;;;30.80;57.50;;;;;;6241528;23;20047;-69
2023/09/11 16:44:44;;;;;;;20.70;9.60;;;30.60;57.30;;;;;;6241407;23;20016;-68
2023/09/11 16:47:30;;;;;;;15.27;9.10;;;30.50;57.60;;;;;;6239465;23;20341;-69
2023/09/11 16:50:17;;;;;;;7.65;4.47;;;30.40;57.50;;;;;;6242588;23;20348;-68
2023/09/11 16:53:03;;;;;;;6.70;3.55;;;30.40;57.30;;;;;;6240868;23;20043;-68
2023/09/11 16:55:49;;;;;;;18.00;7.97;;;30.30;57.30;;;;;;6241294;22;20386;-68
2023/09/11 16:58:35;;;;;;;14.20;7.25;;;30.20;57.80;;;;;;6242346;23;20035;-68
2023/09/11 17:01:21;;;;;;;13.70;7.07;;;30.00;57.90;;;;;;6241130;23;20087;-69
2023/09/11 17:04:07;;;;;;;18.23;10.38;;;30.00;58.10;;;;;;6240788;23;20008;-69
2023/09/11 17:06:53;;;;;;;12.65;6.28;;;29.90;58.30;;;;;;6240033;23;20039;-69
2023/09/11 17:09:39;;;;;;;7.53;4.78;;;29.80;58.20;;;;;;6242257;23;20008;-68
2023/09/11 17:12:25;;;;;;;7.82;4.72;;;29.60;58.20;;;;;;6242492;22;20441;-67
2023/09/11 17:15:11;;;;;;;10.80;5.90;;;29.50;58.60;;;;;;6242404;23;20012;-68
2023/09/11 17:17:57;;;;;;;8.18;5.15;;;29.40;58.70;;;;;;6240135;23;20262;-68
2023/09/11 17:20:43;;;;;;;9.95;4.88;;;29.40;58.90;;;;;;6241845;23;20016;-67
2023/09/11 17:23:29;;;;;;;9.85;5.72;;;29.30;59.10;;;;;;6240852;23;20425;-68
2023/09/11 17:26:15;;;;;;;13.27;6.70;;;29.20;59.40;;;;;;6242855;22;20012;-67
2023/09/11 17:29:01;;;;;;;13.63;7.03;;;29.10;59.60;;;;;;6241680;23;20012;-69
2023/09/11 17:31:47;;;;;;;8.43;5.72;;;29.00;60.10;;;;;;6242183;23;20015;-68
2023/09/11 17:34:33;;;;;;;8.50;4.93;;;28.90;60.10;;;;;;6242448;22;20058;-68
2023/09/11 17:37:19;;;;;;;10.40;5.25;;;28.80;60.30;;;;;;6241689;23;20097;-69
2023/09/11 17:40:06;;;;;;;10.25;6.18;;;28.70;60.40;;;;;;6239209;23;20413;-68
2023/09/11 17:42:52;;;;;;;17.33;6.15;;;28.60;60.60;;;;;;6239648;23;20434;-67
2023/09/11 17:45:38;;;;;;;16.77;6.72;;;28.50;61.00;;;;;;6240257;23;20086;-68
2023/09/11 17:48:24;;;;;;;13.02;5.38;;;28.50;61.40;;;;;;6240161;23;20019;-68
2023/09/11 17:51:10;;;;;;;13.75;6.85;;;28.40;61.50;;;;;;6241107;23;20016;-68
2023/09/11 17:53:55;;;;;;;12.63;6.20;;;28.30;62.00;;;;;;6241710;23;20445;-68
2023/09/11 17:56:41;;;;;;;12.75;7.10;;;28.20;62.40;;;;;;6241050;22;20024;-69
2023/09/11 17:59:27;;;;;;;10.65;6.07;;;28.10;62.90;;;;;;6240939;23;20004;-68
2023/09/11 18:02:13;;;;;;;10.70;6.45;;;28.00;63.00;;;;;;6241830;23;20004;-68
2023/09/11 18:04:59;;;;;;;14.98;7.80;;;27.90;63.30;;;;;;6241193;23;20012;-68
2023/09/11 18:07:45;;;;;;;16.73;8.73;;;27.80;63.70;;;;;;6241057;23;20344;-68
2023/09/11 18:10:31;;;;;;;13.88;8.32;;;27.70;64.10;;;;;;6241941;22;20334;-68
2023/09/11 18:13:17;;;;;;;18.98;10.30;;;27.60;63.70;;;;;;6241729;23;20424;-68
2023/09/11 18:16:03;;;;;;;17.55;10.70;;;27.60;63.70;;;;;;6239773;23;20019;-68
2023/09/11 18:18:49;;;;;;;20.60;10.50;;;27.60;64.20;;;;;;6239798;23;20261;-68
2023/09/11 18:21:38;;;;;;;23.90;10.98;;;27.40;64.70;;;;;;6239038;23;20437;-68
2023/09/11 18:24:24;;;;;;;22.95;10.93;;;27.30;65.40;;;;;;6239150;23;20016;-68
2023/09/11 18:27:11;;;;;;;23.33;10.95;;;27.30;66.30;;;;;;6240103;23;20010;-68
2023/09/11 18:29:56;;;;;;;24.80;11.63;;;27.30;66.20;;;;;;6239926;23;20264;-68
2023/09/11 18:32:42;;;;;;;26.42;11.77;;;27.20;66.60;;;;;;6239188;23;20020;-68
2023/09/11 18:35:28;;;;;;;20.52;10.25;;;27.10;67.60;;;;;;6240242;23;20015;-69
2023/09/11 18:38:16;;;;;;;19.88;11.88;;;27.00;67.90;;;;;;6239588;23;20400;-68
2023/09/11 18:41:02;;;;;;;14.88;10.95;;;26.90;67.90;;;;;;6237626;23;20348;-68
2023/09/11 18:43:48;;;;;;;22.80;12.48;;;26.90;67.80;;;;;;6240036;23;20012;-67
2023/09/11 18:46:35;;;;;;;25.27;11.50;;;26.80;68.90;;;;;;6239853;23;20515;-67
2023/09/11 18:49:21;;;;;;;19.50;12.05;;;26.70;69.60;;;;;;6240036;23;20023;-67
2023/09/11 18:52:08;;;;;;;21.88;11.38;;;26.60;68.50;;;;;;6239191;23;20030;-67